Time;durP1;ratioP1;P1;durP2;ratioP2;P2;SDS_P1;SDS_P2;PMS_P1;PMS_P2;Temp;Humidity;BMP_temperature;BMP_pressure;BME280_temperature;BME280_humidity;BME280_pressure;Samples;Min_cycle;Max_cycle;Signal;HPM_P1;HPM_P2
2022/03/10 00:01:34;;;;;;;51.10;21.30;;;24.30;48.60;;;;;;220993;1267;22554;-50
2022/03/10 00:06:39;;;;;;;50.00;22.20;;;24.20;49.00;;;;;;220275;1267;23016;-55
2022/03/10 00:11:47;;;;;;;51.80;21.40;;;24.00;49.50;;;;;;219852;1267;25499;-52
2022/03/10 00:17:00;;;;;;;45.40;19.50;;;23.90;49.80;;;;;;219798;1267;22563;-52
2022/03/10 00:22:04;;;;;;;43.80;19.40;;;23.70;50.00;;;;;;219844;1267;22698;-50
2022/03/10 00:27:08;;;;;;;45.80;19.90;;;23.60;50.20;;;;;;220123;1267;22540;-51
2022/03/10 00:32:11;;;;;;;42.80;19.70;;;23.40;50.50;;;;;;219851;1267;24216;-53
2022/03/10 00:37:15;;;;;;;39.50;19.10;;;23.40;50.60;;;;;;220244;1267;24340;-53
2022/03/10 00:42:22;;;;;;;42.10;20.30;;;23.20;51.10;;;;;;220063;1267;25582;-52
2022/03/10 00:47:29;;;;;;;34.20;16.80;;;23.20;51.10;;;;;;220882;1267;22587;-51
2022/03/10 00:52:45;;;;;;;37.90;18.10;;;23.10;50.80;;;;;;220294;1267;22566;-53
2022/03/10 00:57:50;;;;;;;37.20;18.00;;;23.10;50.60;;;;;;220351;1267;25544;-51
2022/03/10 01:02:56;;;;;;;37.30;17.70;;;23.00;50.60;;;;;;220153;1267;22719;-51
2022/03/10 01:08:00;;;;;;;37.50;18.60;;;22.90;50.60;;;;;;219956;1267;23301;-50
2022/03/10 01:13:12;;;;;;;35.10;17.70;;;22.90;50.80;;;;;;220345;1267;24367;-52
2022/03/10 01:18:16;;;;;;;35.00;17.60;;;22.80;50.70;;;;;;219865;1267;23191;-51
2022/03/10 01:23:20;;;;;;;39.40;18.90;;;22.80;50.80;;;;;;219975;1267;22545;-51
2022/03/10 01:28:26;;;;;;;31.80;16.10;;;22.70;50.70;;;;;;219935;1266;24385;-54
2022/03/10 01:33:30;;;;;;;34.60;16.80;;;22.70;50.80;;;;;;219716;1267;22544;-51
2022/03/10 01:38:39;;;;;;;33.00;15.40;;;22.60;50.90;;;;;;219810;1267;22535;-51
2022/03/10 01:44:03;;;;;;;33.00;16.30;;;22.50;50.70;;;;;;219787;1267;22556;-52
2022/03/10 01:49:07;;;;;;;32.80;15.70;;;22.50;50.70;;;;;;219991;1267;24438;-53
2022/03/10 01:54:11;;;;;;;32.20;16.10;;;22.50;50.60;;;;;;219854;1267;24281;-54
2022/03/10 01:59:15;;;;;;;29.50;15.80;;;22.40;51.30;;;;;;220158;1267;25477;-50
2022/03/10 02:04:18;;;;;;;29.80;14.70;;;22.50;50.00;;;;;;219811;1267;25242;-54
2022/03/10 02:20:23;;;;;;;27.80;14.50;;;23.50;48.50;;;;;;219610;1267;22541;-54
2022/03/10 02:25:28;;;;;;;22.20;12.90;;;23.60;48.10;;;;;;219830;1267;24073;-55
2022/03/10 02:30:32;;;;;;;28.50;14.10;;;23.70;48.60;;;;;;220100;1267;22531;-53
2022/03/10 02:35:36;;;;;;;26.20;14.20;;;23.80;47.70;;;;;;219871;1267;25426;-53
2022/03/10 02:40:39;;;;;;;27.40;14.10;;;23.90;47.70;;;;;;220159;1266;25359;-51
2022/03/10 02:45:46;;;;;;;24.80;13.10;;;23.90;47.60;;;;;;220203;1267;25480;-53
2022/03/10 02:50:50;;;;;;;26.20;13.60;;;24.00;47.00;;;;;;220240;1267;25641;-55
2022/03/10 02:55:54;;;;;;;21.40;11.90;;;24.00;46.90;;;;;;220448;1267;25255;-54
2022/03/10 03:00:57;;;;;;;22.40;13.20;;;24.10;46.70;;;;;;220521;1267;25468;-52
2022/03/10 03:06:01;;;;;;;22.90;11.90;;;24.10;46.60;;;;;;220294;1267;23177;-54
2022/03/10 03:11:05;;;;;;;24.60;12.70;;;24.10;46.50;;;;;;220451;1267;22680;-55
2022/03/10 03:16:08;;;;;;;21.20;11.40;;;24.20;46.20;;;;;;220195;1267;22698;-51
2022/03/10 03:21:12;;;;;;;21.50;11.60;;;24.30;46.20;;;;;;219716;1267;22593;-53
2022/03/10 03:26:16;;;;;;;21.70;11.20;;;24.30;46.10;;;;;;219827;1266;25619;-53
2022/03/10 03:31:21;;;;;;;21.40;11.40;;;24.30;46.30;;;;;;219978;1267;22570;-53
2022/03/10 03:36:26;;;;;;;20.90;11.70;;;24.30;45.90;;;;;;220249;1267;22549;-50
2022/03/10 03:41:36;;;;;;;20.60;11.10;;;24.40;45.80;;;;;;219939;1267;26714;-51
2022/03/10 03:46:45;;;;;;;20.50;11.60;;;24.40;46.00;;;;;;219719;1270;25214;-51
2022/03/10 03:51:49;;;;;;;24.90;12.40;;;24.50;45.80;;;;;;219951;1267;25229;-53
2022/03/10 03:56:52;;;;;;;21.30;11.60;;;24.50;45.80;;;;;;219921;1267;22552;-54
2022/03/10 04:01:56;;;;;;;20.00;11.20;;;24.50;45.50;;;;;;219994;1267;22525;-53
2022/03/10 04:07:00;;;;;;;20.10;10.90;;;24.50;45.60;;;;;;220135;1267;22551;-50
2022/03/10 04:12:04;;;;;;;18.90;10.90;;;24.40;45.80;;;;;;219847;1267;22533;-53
2022/03/10 04:17:13;;;;;;;17.60;10.30;;;24.20;45.90;;;;;;219850;1267;22564;-54
2022/03/10 04:22:35;;;;;;;17.40;9.70;;;24.00;46.30;;;;;;220032;1267;22588;-53
2022/03/10 04:27:51;;;;;;;17.50;10.00;;;23.90;46.40;;;;;;220002;1267;25317;-52
2022/03/10 04:32:57;;;;;;;17.50;9.90;;;23.70;46.90;;;;;;219819;1270;23014;-52
2022/03/10 04:38:01;;;;;;;21.20;11.20;;;23.60;46.90;;;;;;220181;1267;22540;-55
2022/03/10 04:43:05;;;;;;;17.20;9.90;;;23.40;47.10;;;;;;220115;1267;22561;-54
2022/03/10 04:48:12;;;;;;;19.30;11.10;;;23.30;47.40;;;;;;219721;1267;272548;-51
2022/03/10 04:53:18;;;;;;;19.20;11.10;;;23.20;47.60;;;;;;219997;1267;22612;-53
2022/03/10 04:58:23;;;;;;;17.80;11.00;;;23.20;47.50;;;;;;220716;1270;25324;-52
2022/03/10 05:03:28;;;;;;;19.20;10.70;;;23.20;47.90;;;;;;219966;1267;22531;-53
2022/03/10 05:08:32;;;;;;;16.40;10.00;;;23.10;47.50;;;;;;219984;1267;25358;-52
2022/03/10 05:13:35;;;;;;;16.50;10.50;;;23.00;48.20;;;;;;219868;1267;22544;-52
2022/03/10 05:18:39;;;;;;;17.30;10.30;;;22.90;47.90;;;;;;220083;1270;22548;-50
2022/03/10 05:23:42;;;;;;;17.20;9.90;;;22.90;48.10;;;;;;219941;1267;22650;-54
2022/03/10 05:28:46;;;;;;;19.20;11.00;;;22.80;48.00;;;;;;219682;1267;24297;-52
2022/03/10 05:33:50;;;;;;;17.60;10.20;;;22.70;48.20;;;;;;220064;1267;22613;-51
2022/03/10 05:38:53;;;;;;;17.00;10.70;;;22.70;48.30;;;;;;220390;1267;25326;-54
2022/03/10 05:43:57;;;;;;;14.70;9.70;;;22.60;48.30;;;;;;219787;1267;25342;-50
2022/03/10 05:49:01;;;;;;;15.10;9.70;;;22.60;48.00;;;;;;220027;1267;22546;-52
2022/03/10 05:54:05;;;;;;;15.80;9.10;;;22.60;48.40;;;;;;220170;1267;24374;-55
2022/03/10 05:59:09;;;;;;;14.40;9.40;;;22.90;48.30;;;;;;219922;1267;25440;-54
2022/03/10 06:04:16;;;;;;;15.40;8.90;;;23.30;47.10;;;;;;220662;1267;22627;-53
2022/03/10 06:09:21;;;;;;;14.30;8.10;;;23.50;46.70;;;;;;220706;1267;22613;-53
2022/03/10 06:14:26;;;;;;;13.70;8.30;;;23.70;46.00;;;;;;220237;1267;22684;-51
2022/03/10 06:19:36;;;;;;;12.30;8.70;;;23.90;46.00;;;;;;219973;1267;25249;-51
2022/03/10 06:24:56;;;;;;;13.50;8.40;;;24.00;45.60;;;;;;221208;1267;24719;-52
2022/03/10 06:30:00;;;;;;;15.00;8.40;;;24.00;45.30;;;;;;220825;1267;26974;-52
2022/03/10 06:35:08;;;;;;;11.70;7.50;;;24.10;45.00;;;;;;220878;1267;23002;-53
2022/03/10 06:40:17;;;;;;;13.90;8.90;;;24.10;44.90;;;;;;220563;1268;22556;-51
2022/03/10 06:45:27;;;;;;;14.00;8.70;;;24.30;44.70;;;;;;221310;1268;25583;-54
2022/03/10 06:50:30;;;;;;;12.20;8.20;;;24.30;44.60;;;;;;220321;1267;22704;-52
2022/03/10 06:55:35;;;;;;;13.40;7.70;;;24.30;44.40;;;;;;220457;1268;22630;-55
2022/03/10 07:00:40;;;;;;;11.80;7.50;;;24.40;44.80;;;;;;220334;1267;25924;-50
2022/03/10 07:05:44;;;;;;;12.40;7.40;;;24.40;44.80;;;;;;220493;1268;25626;-51
2022/03/10 07:10:48;;;;;;;10.60;7.30;;;24.40;44.30;;;;;;219943;1268;25242;-54
2022/03/10 07:15:52;;;;;;;13.40;7.60;;;24.40;44.30;;;;;;219882;1267;22605;-51
2022/03/10 07:20:56;;;;;;;12.00;7.40;;;24.50;44.60;;;;;;220073;1268;24425;-50
2022/03/10 07:26:00;;;;;;;11.90;7.80;;;24.50;44.80;;;;;;220014;1268;24240;-53
2022/03/10 07:31:03;;;;;;;12.20;8.10;;;24.50;44.10;;;;;;220448;1268;22530;-54
2022/03/10 07:36:07;;;;;;;10.60;7.50;;;24.60;44.70;;;;;;219763;1267;25180;-52
2022/03/10 07:41:16;;;;;;;12.60;7.30;;;24.40;44.30;;;;;;219828;1267;24316;-53
2022/03/10 07:46:22;;;;;;;12.10;7.80;;;24.40;44.50;;;;;;219925;1268;24296;-53
2022/03/10 07:51:26;;;;;;;11.80;6.70;;;24.30;44.80;;;;;;220035;1267;22580;-54
2022/03/10 07:56:30;;;;;;;9.90;6.60;;;24.30;45.20;;;;;;220412;1267;22994;-53
2022/03/10 08:01:34;;;;;;;14.30;7.10;;;24.00;45.60;;;;;;220806;1267;22534;-51
2022/03/10 08:06:39;;;;;;;11.40;7.70;;;23.90;46.10;;;;;;220262;1268;22608;-52
2022/03/10 08:11:43;;;;;;;10.90;6.80;;;23.90;46.70;;;;;;220850;1266;22758;-52
2022/03/10 08:16:46;;;;;;;13.10;6.90;;;23.80;46.40;;;;;;219650;1267;22525;-54
2022/03/10 08:21:51;;;;;;;11.40;6.50;;;23.80;46.70;;;;;;219984;1267;22570;-54
2022/03/10 08:26:58;;;;;;;10.40;6.30;;;23.70;46.90;;;;;;219819;1267;22609;-51
2022/03/10 08:32:03;;;;;;;11.10;6.40;;;23.60;47.20;;;;;;220281;1267;22543;-51
2022/03/10 08:37:08;;;;;;;13.50;6.50;;;23.60;46.90;;;;;;219892;1268;25291;-55
2022/03/10 08:42:12;;;;;;;13.20;6.00;;;23.60;47.00;;;;;;219854;1267;24220;-50
2022/03/10 08:47:16;;;;;;;13.00;6.00;;;23.60;47.40;;;;;;219689;1267;24208;-53
2022/03/10 08:52:19;;;;;;;10.10;5.70;;;23.60;47.10;;;;;;219736;1270;22601;-50
2022/03/10 08:57:23;;;;;;;15.90;6.60;;;23.50;47.20;;;;;;219739;1268;22566;-52
2022/03/10 09:02:27;;;;;;;10.10;6.00;;;23.50;47.20;;;;;;219900;1267;25575;-52
2022/03/10 09:07:36;;;;;;;9.30;5.80;;;23.50;47.30;;;;;;219792;1267;26693;-53
2022/03/10 09:12:47;;;;;;;11.90;5.90;;;23.50;47.30;;;;;;219776;1267;24391;-51
2022/03/10 09:17:51;;;;;;;13.10;6.00;;;23.50;47.20;;;;;;219966;1267;24253;-54
2022/03/10 09:22:55;;;;;;;24.60;7.20;;;23.50;47.60;;;;;;219790;1268;22547;-54
2022/03/10 09:27:59;;;;;;;11.90;5.80;;;23.50;47.40;;;;;;220259;1270;25487;-54
2022/03/10 09:33:03;;;;;;;9.20;5.30;;;23.40;47.60;;;;;;220156;1268;22743;-51
2022/03/10 09:38:08;;;;;;;11.70;5.40;;;23.40;47.70;;;;;;220390;1270;25086;-50
2022/03/10 09:43:12;;;;;;;10.20;4.70;;;23.40;47.70;;;;;;220022;1267;22632;-51
2022/03/10 09:48:16;;;;;;;10.00;4.70;;;23.40;48.10;;;;;;219587;1268;26827;-52
2022/03/10 09:53:20;;;;;;;13.70;5.20;;;23.40;48.00;;;;;;220063;1266;23409;-54
2022/03/10 09:58:38;;;;;;;11.60;5.30;;;23.50;48.10;;;;;;219663;1268;25474;-51
2022/03/10 10:03:43;;;;;;;31.40;5.80;;;23.50;47.90;;;;;;220432;1267;22981;-55
2022/03/10 10:08:57;;;;;;;9.80;4.60;;;23.50;48.50;;;;;;220002;1270;22556;-54
2022/03/10 10:14:02;;;;;;;10.70;5.00;;;23.50;48.30;;;;;;219869;1268;23368;-54
2022/03/10 10:19:17;;;;;;;14.70;5.00;;;23.50;48.60;;;;;;220481;1268;22592;-50
2022/03/10 10:24:23;;;;;;;10.50;5.20;;;23.50;48.70;;;;;;220169;1268;23065;-52
2022/03/10 10:29:28;;;;;;;9.40;5.20;;;23.50;49.40;;;;;;219997;1268;22567;-52
2022/03/10 10:34:31;;;;;;;12.10;4.40;;;23.50;49.50;;;;;;220072;1268;25572;-53
2022/03/10 10:39:51;;;;;;;13.50;4.40;;;23.50;49.60;;;;;;219803;1269;24231;-51
2022/03/10 10:44:56;;;;;;;9.90;5.50;;;23.50;49.70;;;;;;219899;1268;22534;-54
2022/03/10 10:50:06;;;;;;;10.10;3.90;;;23.50;49.60;;;;;;219793;1271;22552;-50
2022/03/10 10:55:12;;;;;;;11.20;4.10;;;23.50;49.50;;;;;;220043;1268;22630;-54
2022/03/10 11:00:17;;;;;;;9.70;4.40;;;23.50;49.10;;;;;;219822;1268;22549;-52
2022/03/10 11:05:20;;;;;;;12.30;4.20;;;23.60;48.60;;;;;;219791;1270;24436;-52
2022/03/10 11:10:25;;;;;;;12.70;4.60;;;23.70;49.60;;;;;;219908;1268;24494;-54
2022/03/10 11:15:29;;;;;;;12.30;4.80;;;23.80;48.60;;;;;;219629;1268;26035;-57
2022/03/10 11:20:35;;;;;;;10.50;4.80;;;23.90;47.50;;;;;;219965;1268;22538;-51
2022/03/10 11:26:07;;;;;;;9.40;4.10;;;23.90;47.50;;;;;;219816;1268;25260;-52
2022/03/10 11:31:17;;;;;;;10.60;4.40;;;23.90;47.30;;;;;;220110;1268;22548;-53
2022/03/10 11:36:28;;;;;;;9.10;4.20;;;23.90;47.60;;;;;;219892;1268;23044;-53
2022/03/10 11:41:53;;;;;;;6.60;3.70;;;23.90;46.90;;;;;;219849;1268;24227;-57
2022/03/10 11:46:59;;;;;;;7.30;4.50;;;23.90;46.60;;;;;;219710;1268;22635;-57
2022/03/10 11:52:22;;;;;;;8.70;4.40;;;23.80;45.70;;;;;;219632;1268;25364;-54
2022/03/10 11:57:25;;;;;;;12.90;4.60;;;23.60;41.60;;;;;;219670;1268;22557;-55
2022/03/10 12:02:39;;;;;;;7.00;4.20;;;23.50;39.80;;;;;;219456;1268;25386;-56
2022/03/10 12:07:50;;;;;;;9.00;4.90;;;23.50;39.10;;;;;;219855;1267;22544;-56
2022/03/10 12:12:53;;;;;;;8.70;4.80;;;23.40;37.50;;;;;;219619;1268;26324;-57
2022/03/10 12:18:12;;;;;;;10.70;4.40;;;23.30;36.40;;;;;;219695;1268;27416;-58
2022/03/10 12:23:25;;;;;;;8.00;4.20;;;23.30;35.30;;;;;;219684;1268;25306;-59
2022/03/10 12:28:31;;;;;;;6.40;4.60;;;23.10;32.10;;;;;;219404;1268;22556;-59
2022/03/10 12:33:44;;;;;;;6.80;3.80;;;23.10;31.30;;;;;;219583;1267;22536;-58
2022/03/10 12:38:49;;;;;;;8.20;4.70;;;23.30;32.60;;;;;;219358;1268;26814;-57
2022/03/10 12:43:54;;;;;;;7.00;4.20;;;23.70;32.80;;;;;;219776;1267;25331;-58
2022/03/10 12:49:22;;;;;;;6.00;4.20;;;24.10;32.90;;;;;;220003;1267;23328;-60
2022/03/10 12:54:26;;;;;;;6.70;4.50;;;24.30;32.80;;;;;;219696;1267;23395;-58
2022/03/10 12:59:35;;;;;;;5.70;3.60;;;24.30;31.70;;;;;;219759;1267;23908;-57
2022/03/10 13:04:53;;;;;;;11.00;4.30;;;24.30;31.30;;;;;;219549;1267;22559;-59
2022/03/10 13:10:04;;;;;;;5.10;3.80;;;24.30;30.50;;;;;;220032;1268;22544;-56
2022/03/10 13:15:09;;;;;;;11.10;4.60;;;24.30;31.00;;;;;;219950;1268;24367;-58
2022/03/10 13:20:20;;;;;;;8.10;3.80;;;24.30;31.00;;;;;;219366;1268;22621;-56
2022/03/10 13:25:25;;;;;;;10.40;4.00;;;24.30;31.00;;;;;;219905;1269;22553;-58
2022/03/10 13:30:30;;;;;;;5.40;3.10;;;24.40;32.20;;;;;;219513;1271;22531;-58
2022/03/10 13:35:36;;;;;;;12.70;4.00;;;24.40;32.90;;;;;;219682;1267;24600;-57
2022/03/10 13:40:40;;;;;;;7.10;3.70;;;24.40;33.50;;;;;;220264;1268;24309;-56
2022/03/10 13:45:44;;;;;;;5.40;2.90;;;24.40;34.20;;;;;;220208;1267;25261;-56
2022/03/10 13:50:49;;;;;;;7.60;3.30;;;24.30;34.60;;;;;;219888;1267;22745;-56
2022/03/10 13:55:57;;;;;;;10.30;4.50;;;24.30;35.10;;;;;;219747;1268;24415;-59
2022/03/10 14:01:07;;;;;;;6.20;3.40;;;24.20;35.60;;;;;;219757;1267;22554;-55
2022/03/10 14:06:16;;;;;;;6.90;3.20;;;24.10;36.10;;;;;;220261;1268;22746;-57
2022/03/10 14:11:28;;;;;;;8.90;3.70;;;24.10;36.50;;;;;;220231;1267;22585;-57
2022/03/10 14:16:34;;;;;;;9.50;3.50;;;24.20;36.80;;;;;;219979;1267;22523;-53
2022/03/10 14:21:49;;;;;;;7.40;3.80;;;24.10;37.00;;;;;;220186;1267;22622;-59
2022/03/10 14:27:05;;;;;;;12.10;3.30;;;24.10;37.30;;;;;;219935;1267;22630;-56
2022/03/10 14:32:10;;;;;;;6.00;3.40;;;24.10;37.30;;;;;;220037;1268;24257;-54
2022/03/10 14:37:15;;;;;;;7.50;3.60;;;24.00;37.30;;;;;;219917;1266;24307;-57
2022/03/10 14:42:19;;;;;;;7.20;3.70;;;24.00;37.70;;;;;;220259;1267;25352;-56
2022/03/10 14:47:23;;;;;;;5.60;3.10;;;23.90;38.00;;;;;;220128;1268;25382;-56
2022/03/10 14:52:27;;;;;;;8.30;3.30;;;23.80;38.10;;;;;;220239;1267;22604;-56
2022/03/10 14:57:30;;;;;;;5.70;3.00;;;23.80;38.80;;;;;;220511;1268;26868;-57
2022/03/10 15:02:36;;;;;;;8.50;2.80;;;23.70;38.50;;;;;;220199;1265;22553;-59
2022/03/10 15:07:41;;;;;;;6.30;3.10;;;23.60;39.30;;;;;;219926;1267;22539;-58
2022/03/10 15:12:47;;;;;;;5.80;3.30;;;23.60;38.80;;;;;;219980;1268;22592;-54
2022/03/10 15:18:25;;;;;;;6.80;3.10;;;23.60;39.00;;;;;;220247;1268;25496;-58
2022/03/10 15:23:35;;;;;;;8.90;4.00;;;23.50;39.00;;;;;;220065;1267;25330;-59
2022/03/10 15:28:39;;;;;;;5.00;2.70;;;23.50;39.60;;;;;;220216;1268;25796;-56
2022/03/10 15:33:43;;;;;;;6.50;2.90;;;23.40;39.50;;;;;;220389;1267;24155;-54
2022/03/10 15:38:52;;;;;;;8.40;3.30;;;23.30;39.70;;;;;;220012;1268;26712;-56
2022/03/10 15:43:56;;;;;;;6.20;2.90;;;23.30;40.10;;;;;;219919;1267;22562;-55
2022/03/10 15:49:00;;;;;;;5.90;3.20;;;23.20;41.00;;;;;;220145;1267;22554;-53
2022/03/10 15:54:03;;;;;;;9.40;3.30;;;23.20;41.20;;;;;;220061;1267;22700;-56
2022/03/10 15:59:08;;;;;;;6.90;3.20;;;23.20;41.70;;;;;;220110;1267;25255;-53
2022/03/10 16:04:14;;;;;;;8.00;3.40;;;23.10;42.00;;;;;;220177;1268;25197;-55
2022/03/10 16:09:18;;;;;;;7.80;3.50;;;23.10;42.30;;;;;;220249;1267;24322;-54
2022/03/10 16:14:22;;;;;;;17.30;4.50;;;23.00;42.60;;;;;;220351;1267;22560;-56
2022/03/10 16:19:25;;;;;;;5.90;3.30;;;23.00;42.80;;;;;;220269;1268;22547;-56
2022/03/10 16:24:29;;;;;;;7.10;3.90;;;22.90;43.30;;;;;;220079;1267;22546;-54
2022/03/10 16:29:32;;;;;;;7.90;3.50;;;22.90;43.30;;;;;;220411;1267;25365;-54
2022/03/10 16:34:36;;;;;;;5.80;2.90;;;22.90;44.30;;;;;;220180;1267;22587;-52
2022/03/10 16:39:45;;;;;;;8.00;3.60;;;22.90;43.70;;;;;;220378;1267;24053;-56
2022/03/10 16:44:52;;;;;;;7.50;3.90;;;22.90;43.50;;;;;;217808;1267;3203291;-54
2022/03/10 16:49:56;;;;;;;13.50;3.50;;;22.90;43.60;;;;;;220090;1267;22533;-56
2022/03/10 16:55:03;;;;;;;7.10;3.60;;;22.90;43.60;;;;;;219865;1267;22706;-55
2022/03/10 17:00:07;;;;;;;8.30;3.80;;;22.80;43.30;;;;;;219969;1267;25248;-58
2022/03/10 17:05:16;;;;;;;8.70;3.90;;;22.70;43.00;;;;;;202694;1266;15003018;-60
2022/03/10 17:10:23;;;;;;;8.10;4.10;;;22.70;42.50;;;;;;219908;1270;22535;-56
2022/03/10 17:15:28;;;;;;;8.80;4.00;;;22.60;42.50;;;;;;219655;1270;22586;-56
2022/03/10 17:20:32;;;;;;;8.50;4.10;;;22.50;42.30;;;;;;219384;1271;24903;-54
2022/03/10 17:25:36;;;;;;;16.10;7.70;;;22.50;42.30;;;;;;219567;1270;22543;-57
2022/03/10 17:30:40;;;;;;;13.00;7.90;;;22.40;41.80;;;;;;219652;1271;22586;-57
2022/03/10 17:35:49;;;;;;;14.30;10.30;;;22.40;41.70;;;;;;219795;1270;25608;-53
2022/03/10 17:40:56;;;;;;;18.00;10.30;;;22.40;41.50;;;;;;219822;1271;22551;-57
2022/03/10 17:46:05;;;;;;;16.00;9.70;;;22.40;41.30;;;;;;219448;1270;25366;-55
2022/03/10 17:51:10;;;;;;;15.30;9.30;;;22.40;41.10;;;;;;220134;1270;24431;-57
2022/03/10 17:56:15;;;;;;;14.50;9.70;;;22.30;40.10;;;;;;219990;1270;22576;-54
2022/03/10 18:01:21;;;;;;;15.60;10.40;;;22.30;40.10;;;;;;220263;1270;22626;-56
2022/03/10 18:06:45;;;;;;;15.50;9.30;;;22.30;40.50;;;;;;219905;1270;22657;-58
2022/03/10 18:11:53;;;;;;;17.10;9.20;;;22.20;40.80;;;;;;219830;1270;22555;-56
2022/03/10 18:17:08;;;;;;;13.20;8.50;;;22.20;41.10;;;;;;219524;1270;22588;-58
2022/03/10 18:22:12;;;;;;;18.00;8.80;;;22.20;41.20;;;;;;219692;1270;22556;-57
2022/03/10 18:27:18;;;;;;;19.00;8.40;;;22.20;41.00;;;;;;219586;1270;22531;-57
2022/03/10 18:32:23;;;;;;;19.20;8.00;;;22.20;41.00;;;;;;219864;1270;25478;-55
2022/03/10 18:37:27;;;;;;;13.00;7.50;;;22.30;41.00;;;;;;219689;1271;22571;-58
2022/03/10 18:42:31;;;;;;;13.40;7.00;;;22.70;40.20;;;;;;219795;1271;22662;-57
2022/03/10 18:47:34;;;;;;;15.60;8.00;;;22.80;41.30;;;;;;219840;1270;22531;-56
2022/03/10 18:52:44;;;;;;;15.60;8.50;;;23.20;40.60;;;;;;219302;1271;22538;-58
2022/03/10 18:57:57;;;;;;;16.00;8.50;;;23.40;40.00;;;;;;219726;1270;23499;-58
2022/03/10 19:03:08;;;;;;;16.40;7.60;;;23.50;39.60;;;;;;220677;1270;22569;-57
2022/03/10 19:08:13;;;;;;;14.30;7.20;;;23.60;39.20;;;;;;220592;1270;22562;-57
2022/03/10 19:13:20;;;;;;;22.90;9.20;;;23.80;38.90;;;;;;220519;1270;24268;-57
2022/03/10 19:18:26;;;;;;;22.60;8.60;;;23.80;38.50;;;;;;220141;1270;24338;-56
2022/03/10 19:23:36;;;;;;;17.80;9.00;;;24.00;38.20;;;;;;219758;1270;22706;-55
2022/03/10 19:28:58;;;;;;;12.30;6.40;;;24.10;38.10;;;;;;220098;1263;68556;-56
2022/03/10 19:34:15;;;;;;;14.30;7.40;;;24.10;37.90;;;;;;219295;1273;22566;-58
2022/03/10 19:39:32;;;;;;;12.70;7.40;;;24.20;37.80;;;;;;219379;1273;26605;-57
2022/03/10 19:44:38;;;;;;;;;;;24.30;37.90;;;;;;219616;1273;22583;-59
2022/03/10 19:49:49;;;;;;;15.80;9.10;;;24.30;37.30;;;;;;219419;1273;24515;-56
2022/03/10 19:55:14;;;;;;;11.80;8.40;;;24.30;37.50;;;;;;219160;1273;24469;-60
2022/03/10 20:00:29;;;;;;;16.20;8.20;;;24.30;37.10;;;;;;219255;1273;22566;-60
2022/03/10 20:05:42;;;;;;;15.50;8.80;;;24.40;36.90;;;;;;219400;1273;24041;-58
2022/03/10 20:10:48;;;;;;;15.30;9.30;;;24.50;37.10;;;;;;219606;1273;23054;-59
2022/03/10 20:15:54;;;;;;;14.80;9.20;;;24.50;36.70;;;;;;219436;1273;22615;-56
2022/03/10 20:21:08;;;;;;;17.80;9.20;;;24.50;36.70;;;;;;219303;1273;24235;-54
2022/03/10 20:26:18;;;;;;;17.10;9.30;;;24.50;36.80;;;;;;219245;1273;23674;-55
2022/03/10 20:31:26;;;;;;;30.20;10.60;;;24.60;37.20;;;;;;219373;1273;24083;-56
2022/03/10 20:36:32;;;;;;;18.30;9.40;;;24.60;36.40;;;;;;219406;1273;22745;-54
2022/03/10 20:41:40;;;;;;;23.90;10.80;;;24.30;36.90;;;;;;219487;1273;25593;-55
2022/03/10 20:46:45;;;;;;;19.30;10.00;;;24.20;37.00;;;;;;219499;1273;22771;-55
2022/03/10 20:51:58;;;;;;;21.90;11.40;;;24.10;37.80;;;;;;219408;1273;23967;-54
2022/03/10 20:57:09;;;;;;;26.70;9.60;;;23.90;37.90;;;;;;219361;1273;22621;-55
2022/03/10 21:02:19;;;;;;;24.00;11.10;;;23.80;38.40;;;;;;219568;1273;22810;-53
2022/03/10 21:07:29;;;;;;;28.90;10.50;;;23.70;39.00;;;;;;219572;1273;25709;-53
2022/03/10 21:12:40;;;;;;;19.70;10.60;;;23.50;39.10;;;;;;219594;1273;22616;-57
2022/03/10 21:17:51;;;;;;;19.80;11.00;;;23.30;39.50;;;;;;219483;1273;22764;-57
2022/03/10 21:22:59;;;;;;;24.40;9.50;;;23.30;40.00;;;;;;219362;1273;22559;-53
2022/03/10 21:28:07;;;;;;;18.70;10.20;;;23.10;40.10;;;;;;219513;1273;22833;-53
2022/03/10 21:33:13;;;;;;;27.50;10.80;;;23.20;42.10;;;;;;219531;1273;25973;-54
2022/03/10 21:38:17;;;;;;;20.80;10.10;;;23.10;43.60;;;;;;219401;1273;25628;-55
2022/03/10 21:43:22;;;;;;;26.80;10.10;;;23.00;42.70;;;;;;219406;1273;22739;-54
2022/03/10 21:48:25;;;;;;;24.00;10.70;;;22.80;42.80;;;;;;219586;1273;25255;-53
2022/03/10 21:53:29;;;;;;;19.90;10.20;;;22.80;42.80;;;;;;219436;1273;25617;-52
2022/03/10 21:58:33;;;;;;;22.20;10.00;;;22.70;43.00;;;;;;219433;1273;22540;-55
2022/03/10 22:03:39;;;;;;;22.70;9.30;;;22.50;42.80;;;;;;219530;1273;24273;-54
2022/03/10 22:08:44;;;;;;;20.60;9.40;;;22.70;45.20;;;;;;219488;1273;22950;-54
2022/03/10 22:13:48;;;;;;;24.50;8.40;;;22.70;46.30;;;;;;219508;1273;22700;-53
2022/03/10 22:18:55;;;;;;;27.00;9.50;;;22.80;46.30;;;;;;219430;1273;23210;-54
2022/03/10 22:23:59;;;;;;;22.80;9.20;;;22.70;46.30;;;;;;219358;1273;26182;-54
2022/03/10 22:29:07;;;;;;;15.70;8.30;;;22.60;45.90;;;;;;219437;1273;22662;-55
2022/03/10 22:34:11;;;;;;;16.70;8.50;;;22.60;46.40;;;;;;219626;1273;22563;-54
2022/03/10 22:39:15;;;;;;;18.10;8.10;;;22.50;46.10;;;;;;219510;1273;25422;-54
2022/03/10 22:44:21;;;;;;;17.80;8.10;;;22.50;46.60;;;;;;219497;1273;22801;-55
2022/03/10 22:49:29;;;;;;;21.30;9.00;;;22.40;46.30;;;;;;219559;1273;25723;-53
2022/03/10 22:54:34;;;;;;;17.60;7.90;;;22.40;46.70;;;;;;219598;1273;22695;-56
2022/03/10 22:59:38;;;;;;;15.10;7.60;;;22.30;46.10;;;;;;219623;1273;22570;-56
2022/03/10 23:10:15;;;;;;;17.20;8.70;;;22.70;45.50;;;;;;219381;1273;22586;-54
2022/03/10 23:15:19;;;;;;;13.00;6.90;;;23.10;44.60;;;;;;219344;1273;22763;-54
2022/03/10 23:20:23;;;;;;;13.10;7.00;;;23.50;43.70;;;;;;219410;1273;22553;-56
2022/03/10 23:25:28;;;;;;;15.00;7.20;;;23.70;43.20;;;;;;219376;1273;25302;-55
2022/03/10 23:30:32;;;;;;;17.00;7.50;;;23.90;43.10;;;;;;219385;1273;22547;-54
2022/03/10 23:35:36;;;;;;;11.80;6.50;;;24.10;42.50;;;;;;219537;1273;22554;-54
2022/03/10 23:40:40;;;;;;;12.30;7.00;;;24.30;42.00;;;;;;219625;1273;25282;-51
2022/03/10 23:45:44;;;;;;;12.40;7.10;;;24.40;42.00;;;;;;219386;1273;25317;-56
2022/03/10 23:50:58;;;;;;;12.50;6.40;;;24.50;42.00;;;;;;219308;1273;22715;-54
2022/03/10 23:56:08;;;;;;;12.30;6.80;;;24.40;42.00;;;;;;219495;1273;22784;-54
